sensor_id;sensor_type;location;lat;lon;timestamp;temperature;humidity
51837;DHT22;38941;53.254;6.600;2023-05-19T00:01:43;8.30;99.90
51837;DHT22;38941;53.254;6.600;2023-05-19T00:03:53;8.40;99.90
51837;DHT22;38941;53.254;6.600;2023-05-19T00:05:53;8.40;99.90
51837;DHT22;38941;53.254;6.600;2023-05-19T00:07:58;8.40;99.90
51837;DHT22;38941;53.254;6.600;2023-05-19T00:10:00;8.30;99.90
51837;DHT22;38941;53.254;6.600;2023-05-19T00:12:01;8.30;99.90
51837;DHT22;38941;53.254;6.600;2023-05-19T00:14:07;8.30;99.90
51837;DHT22;38941;53.254;6.600;2023-05-19T00:16:09;8.30;99.90
51837;DHT22;38941;53.254;6.600;2023-05-19T00:18:10;8.30;99.90
51837;DHT22;38941;53.254;6.600;2023-05-19T00:20:14;8.30;99.90
51837;DHT22;38941;53.254;6.600;2023-05-19T00:22:15;8.30;99.90
51837;DHT22;38941;53.254;6.600;2023-05-19T00:24:16;8.20;99.90
51837;DHT22;38941;53.254;6.600;2023-05-19T00:26:17;8.30;99.90
51837;DHT22;38941;53.254;6.600;2023-05-19T00:28:17;8.20;99.90
51837;DHT22;38941;53.254;6.600;2023-05-19T00:30:18;8.20;99.90
51837;DHT22;38941;53.254;6.600;2023-05-19T00:32:20;8.20;99.90
51837;DHT22;38941;53.254;6.600;2023-05-19T00:34:21;8.20;99.90
51837;DHT22;38941;53.254;6.600;2023-05-19T00:36:21;8.20;99.90
51837;DHT22;38941;53.254;6.600;2023-05-19T00:38:23;8.10;99.90
51837;DHT22;38941;53.254;6.600;2023-05-19T00:40:24;8.10;99.90
51837;DHT22;38941;53.254;6.600;2023-05-19T00:42:25;8.10;99.90
51837;DHT22;38941;53.254;6.600;2023-05-19T00:44:27;8.10;99.90
51837;DHT22;38941;53.254;6.600;2023-05-19T00:46:27;8.10;99.90
51837;DHT22;38941;53.254;6.600;2023-05-19T00:48:31;8.10;99.90
51837;DHT22;38941;53.254;6.600;2023-05-19T00:50:32;8.10;99.90
51837;DHT22;38941;53.254;6.600;2023-05-19T00:52:34;8.00;99.90
51837;DHT22;38941;53.254;6.600;2023-05-19T00:54:35;8.60;99.90
51837;DHT22;38941;53.254;6.600;2023-05-19T00:56:38;8.00;99.90
51837;DHT22;38941;53.254;6.600;2023-05-19T00:58:38;8.00;99.90
51837;DHT22;38941;53.254;6.600;2023-05-19T01:00:40;7.90;99.90
51837;DHT22;38941;53.254;6.600;2023-05-19T01:02:42;7.90;99.90
51837;DHT22;38941;53.254;6.600;2023-05-19T01:04:44;7.80;99.90
51837;DHT22;38941;53.254;6.600;2023-05-19T01:06:49;7.80;99.90
51837;DHT22;38941;53.254;6.600;2023-05-19T01:08:56;7.80;99.90
51837;DHT22;38941;53.254;6.600;2023-05-19T01:10:57;7.80;99.90
51837;DHT22;38941;53.254;6.600;2023-05-19T01:13:04;7.80;99.90
51837;DHT22;38941;53.254;6.600;2023-05-19T01:15:05;7.80;99.90
51837;DHT22;38941;53.254;6.600;2023-05-19T01:17:18;7.70;99.90
51837;DHT22;38941;53.254;6.600;2023-05-19T01:23:53;7.70;99.90
51837;DHT22;38941;53.254;6.600;2023-05-19T01:30:47;7.80;99.90
51837;DHT22;38941;53.254;6.600;2023-05-19T01:32:54;7.60;99.90
51837;DHT22;38941;53.254;6.600;2023-05-19T01:34:56;7.50;99.90
51837;DHT22;38941;53.254;6.600;2023-05-19T01:36:59;7.60;99.90
51837;DHT22;38941;53.254;6.600;2023-05-19T01:39:01;7.50;99.90
51837;DHT22;38941;53.254;6.600;2023-05-19T01:41:04;7.50;99.90
51837;DHT22;38941;53.254;6.600;2023-05-19T01:43:07;7.50;99.90
51837;DHT22;38941;53.254;6.600;2023-05-19T01:45:08;7.50;99.90
51837;DHT22;38941;53.254;6.600;2023-05-19T01:47:10;7.40;99.90
51837;DHT22;38941;53.254;6.600;2023-05-19T01:49:11;7.40;99.90
51837;DHT22;38941;53.254;6.600;2023-05-19T01:51:13;7.40;99.90
51837;DHT22;38941;53.254;6.600;2023-05-19T01:53:13;8.00;99.90
51837;DHT22;38941;53.254;6.600;2023-05-19T01:55:14;7.40;99.90
51837;DHT22;38941;53.254;6.600;2023-05-19T01:59:55;7.30;99.90
51837;DHT22;38941;53.254;6.600;2023-05-19T02:02:01;7.40;99.90
51837;DHT22;38941;53.254;6.600;2023-05-19T02:04:28;7.30;99.90
51837;DHT22;38941;53.254;6.600;2023-05-19T02:09:11;7.40;99.90
51837;DHT22;38941;53.254;6.600;2023-05-19T02:11:18;7.30;99.90
51837;DHT22;38941;53.254;6.600;2023-05-19T02:13:20;7.30;99.90
51837;DHT22;38941;53.254;6.600;2023-05-19T02:15:29;7.40;99.90
51837;DHT22;38941;53.254;6.600;2023-05-19T02:17:35;7.50;99.90
51837;DHT22;38941;53.254;6.600;2023-05-19T02:19:38;7.40;99.90
51837;DHT22;38941;53.254;6.600;2023-05-19T02:21:39;7.30;99.90
51837;DHT22;38941;53.254;6.600;2023-05-19T02:23:40;7.40;99.90
51837;DHT22;38941;53.254;6.600;2023-05-19T02:25:44;7.30;99.90
51837;DHT22;38941;53.254;6.600;2023-05-19T02:27:45;7.20;99.90
51837;DHT22;38941;53.254;6.600;2023-05-19T02:29:47;7.20;99.90
51837;DHT22;38941;53.254;6.600;2023-05-19T02:31:49;7.60;99.90
51837;DHT22;38941;53.254;6.600;2023-05-19T02:33:49;7.30;99.90
51837;DHT22;38941;53.254;6.600;2023-05-19T02:35:50;7.20;99.90
51837;DHT22;38941;53.254;6.600;2023-05-19T02:37:51;7.20;99.90
51837;DHT22;38941;53.254;6.600;2023-05-19T02:39:53;7.20;99.90
51837;DHT22;38941;53.254;6.600;2023-05-19T02:41:55;7.20;99.90
51837;DHT22;38941;53.254;6.600;2023-05-19T02:43:55;7.50;99.90
51837;DHT22;38941;53.254;6.600;2023-05-19T02:45:57;7.50;99.90
51837;DHT22;38941;53.254;6.600;2023-05-19T02:47:58;7.60;99.90
51837;DHT22;38941;53.254;6.600;2023-05-19T02:49:59;7.10;99.90
51837;DHT22;38941;53.254;6.600;2023-05-19T02:52:03;7.60;99.90
51837;DHT22;38941;53.254;6.600;2023-05-19T02:54:04;7.10;99.90
51837;DHT22;38941;53.254;6.600;2023-05-19T02:56:06;7.00;99.90
51837;DHT22;38941;53.254;6.600;2023-05-19T02:58:07;7.10;99.90
51837;DHT22;38941;53.254;6.600;2023-05-19T03:00:08;7.10;99.90
51837;DHT22;38941;53.254;6.600;2023-05-19T03:02:09;7.00;99.90
51837;DHT22;38941;53.254;6.600;2023-05-19T03:04:10;7.00;99.90
51837;DHT22;38941;53.254;6.600;2023-05-19T03:06:15;7.30;99.90
51837;DHT22;38941;53.254;6.600;2023-05-19T03:08:17;6.90;99.90
51837;DHT22;38941;53.254;6.600;2023-05-19T03:10:19;6.90;99.90
51837;DHT22;38941;53.254;6.600;2023-05-19T03:12:19;7.00;99.90
51837;DHT22;38941;53.254;6.600;2023-05-19T03:14:22;7.30;99.90
51837;DHT22;38941;53.254;6.600;2023-05-19T03:16:25;7.20;99.90
51837;DHT22;38941;53.254;6.600;2023-05-19T03:18:27;7.40;99.90
51837;DHT22;38941;53.254;6.600;2023-05-19T03:20:29;6.90;99.90
51837;DHT22;38941;53.254;6.600;2023-05-19T03:22:34;7.00;99.90
51837;DHT22;38941;53.254;6.600;2023-05-19T03:24:34;7.30;99.90
51837;DHT22;38941;53.254;6.600;2023-05-19T03:26:36;7.20;99.90
51837;DHT22;38941;53.254;6.600;2023-05-19T03:28:38;7.00;99.90
51837;DHT22;38941;53.254;6.600;2023-05-19T03:30:40;7.00;99.90
51837;DHT22;38941;53.254;6.600;2023-05-19T03:32:40;7.30;99.90
51837;DHT22;38941;53.254;6.600;2023-05-19T03:34:41;7.00;99.90
51837;DHT22;38941;53.254;6.600;2023-05-19T03:36:42;7.40;99.90
51837;DHT22;38941;53.254;6.600;2023-05-19T03:38:44;7.10;99.90
51837;DHT22;38941;53.254;6.600;2023-05-19T03:40:45;7.10;99.90
51837;DHT22;38941;53.254;6.600;2023-05-19T03:42:45;7.30;99.90
51837;DHT22;38941;53.254;6.600;2023-05-19T03:44:46;7.00;99.90
51837;DHT22;38941;53.254;6.600;2023-05-19T03:46:47;7.40;99.90
51837;DHT22;38941;53.254;6.600;2023-05-19T03:48:48;7.00;99.90
51837;DHT22;38941;53.254;6.600;2023-05-19T03:50:48;7.00;99.90
51837;DHT22;38941;53.254;6.600;2023-05-19T03:52:49;7.20;99.90
51837;DHT22;38941;53.254;6.600;2023-05-19T03:54:51;7.00;99.90
51837;DHT22;38941;53.254;6.600;2023-05-19T03:56:53;7.00;99.90
51837;DHT22;38941;53.254;6.600;2023-05-19T03:58:54;7.00;99.90
51837;DHT22;38941;53.254;6.600;2023-05-19T04:00:55;7.70;99.90
51837;DHT22;38941;53.254;6.600;2023-05-19T04:02:57;6.90;99.90
51837;DHT22;38941;53.254;6.600;2023-05-19T04:04:59;7.00;99.90
51837;DHT22;38941;53.254;6.600;2023-05-19T04:07:00;7.00;99.90
51837;DHT22;38941;53.254;6.600;2023-05-19T04:09:02;7.00;99.90
51837;DHT22;38941;53.254;6.600;2023-05-19T04:11:04;7.00;99.90
51837;DHT22;38941;53.254;6.600;2023-05-19T04:13:04;7.40;99.90
51837;DHT22;38941;53.254;6.600;2023-05-19T04:15:06;7.00;99.90
51837;DHT22;38941;53.254;6.600;2023-05-19T04:17:07;7.00;99.90
51837;DHT22;38941;53.254;6.600;2023-05-19T04:19:07;7.80;99.90
51837;DHT22;38941;53.254;6.600;2023-05-19T04:21:09;7.10;99.90
51837;DHT22;38941;53.254;6.600;2023-05-19T04:23:10;7.10;99.90
51837;DHT22;38941;53.254;6.600;2023-05-19T04:25:11;7.10;99.90
51837;DHT22;38941;53.254;6.600;2023-05-19T04:27:12;7.10;99.90
51837;DHT22;38941;53.254;6.600;2023-05-19T04:29:15;7.10;99.90
51837;DHT22;38941;53.254;6.600;2023-05-19T04:31:17;7.10;99.90
51837;DHT22;38941;53.254;6.600;2023-05-19T04:33:17;7.10;99.90
51837;DHT22;38941;53.254;6.600;2023-05-19T04:35:19;7.10;99.90
51837;DHT22;38941;53.254;6.600;2023-05-19T04:37:21;7.10;99.90
51837;DHT22;38941;53.254;6.600;2023-05-19T04:39:24;7.20;99.90
51837;DHT22;38941;53.254;6.600;2023-05-19T04:41:25;7.40;99.90
51837;DHT22;38941;53.254;6.600;2023-05-19T04:43:26;7.20;99.90
51837;DHT22;38941;53.254;6.600;2023-05-19T04:45:27;7.30;99.90
51837;DHT22;38941;53.254;6.600;2023-05-19T04:47:28;7.30;99.90
51837;DHT22;38941;53.254;6.600;2023-05-19T04:49:29;7.30;99.90
51837;DHT22;38941;53.254;6.600;2023-05-19T04:51:30;7.40;99.90
51837;DHT22;38941;53.254;6.600;2023-05-19T04:53:32;7.70;99.90
51837;DHT22;38941;53.254;6.600;2023-05-19T04:55:32;7.50;99.90
51837;DHT22;38941;53.254;6.600;2023-05-19T04:57:34;7.50;99.90
51837;DHT22;38941;53.254;6.600;2023-05-19T04:59:36;8.00;99.90
51837;DHT22;38941;53.254;6.600;2023-05-19T05:01:37;7.60;99.90
51837;DHT22;38941;53.254;6.600;2023-05-19T05:03:42;7.80;99.90
51837;DHT22;38941;53.254;6.600;2023-05-19T05:05:45;7.70;99.90
51837;DHT22;38941;53.254;6.600;2023-05-19T05:07:46;7.80;99.90
51837;DHT22;38941;53.254;6.600;2023-05-19T05:09:47;7.90;99.90
51837;DHT22;38941;53.254;6.600;2023-05-19T05:11:48;8.00;99.90
51837;DHT22;38941;53.254;6.600;2023-05-19T05:13:49;8.00;99.90
51837;DHT22;38941;53.254;6.600;2023-05-19T05:15:50;8.10;99.90
51837;DHT22;38941;53.254;6.600;2023-05-19T05:17:55;8.20;99.90
51837;DHT22;38941;53.254;6.600;2023-05-19T05:19:57;8.30;99.90
51837;DHT22;38941;53.254;6.600;2023-05-19T05:21:58;8.30;99.90
51837;DHT22;38941;53.254;6.600;2023-05-19T05:23:59;8.40;99.90
51837;DHT22;38941;53.254;6.600;2023-05-19T05:26:15;8.50;99.90
51837;DHT22;38941;53.254;6.600;2023-05-19T05:28:16;8.60;99.90
51837;DHT22;38941;53.254;6.600;2023-05-19T05:30:17;8.80;99.90
51837;DHT22;38941;53.254;6.600;2023-05-19T05:32:18;8.90;99.90
51837;DHT22;38941;53.254;6.600;2023-05-19T05:34:18;9.00;99.90
51837;DHT22;38941;53.254;6.600;2023-05-19T05:36:19;9.10;99.90
51837;DHT22;38941;53.254;6.600;2023-05-19T05:38:20;9.20;99.90
51837;DHT22;38941;53.254;6.600;2023-05-19T05:40:20;9.30;99.90
51837;DHT22;38941;53.254;6.600;2023-05-19T05:42:22;9.50;99.90
51837;DHT22;38941;53.254;6.600;2023-05-19T05:44:23;9.70;99.90
51837;DHT22;38941;53.254;6.600;2023-05-19T05:46:23;9.70;99.90
51837;DHT22;38941;53.254;6.600;2023-05-19T05:48:24;9.80;99.90
51837;DHT22;38941;53.254;6.600;2023-05-19T05:50:25;9.90;99.90
51837;DHT22;38941;53.254;6.600;2023-05-19T05:52:29;10.00;99.90
51837;DHT22;38941;53.254;6.600;2023-05-19T05:54:30;10.10;99.90
51837;DHT22;38941;53.254;6.600;2023-05-19T05:56:31;10.20;99.90
51837;DHT22;38941;53.254;6.600;2023-05-19T05:58:33;10.30;99.90
51837;DHT22;38941;53.254;6.600;2023-05-19T06:00:37;10.30;99.90
51837;DHT22;38941;53.254;6.600;2023-05-19T06:02:38;10.40;99.90
51837;DHT22;38941;53.254;6.600;2023-05-19T06:04:38;10.50;99.90
51837;DHT22;38941;53.254;6.600;2023-05-19T06:06:40;10.60;99.90
51837;DHT22;38941;53.254;6.600;2023-05-19T06:08:41;10.70;99.90
51837;DHT22;38941;53.254;6.600;2023-05-19T06:10:42;10.80;99.90
51837;DHT22;38941;53.254;6.600;2023-05-19T06:12:43;10.90;99.90
51837;DHT22;38941;53.254;6.600;2023-05-19T06:14:44;11.00;99.90
51837;DHT22;38941;53.254;6.600;2023-05-19T06:16:44;11.00;99.90
51837;DHT22;38941;53.254;6.600;2023-05-19T06:18:47;11.10;99.90
51837;DHT22;38941;53.254;6.600;2023-05-19T06:20:49;11.10;99.90
51837;DHT22;38941;53.254;6.600;2023-05-19T06:22:49;11.30;99.90
51837;DHT22;38941;53.254;6.600;2023-05-19T06:30:53;11.40;99.90
51837;DHT22;38941;53.254;6.600;2023-05-19T06:32:55;11.70;99.90
51837;DHT22;38941;53.254;6.600;2023-05-19T06:34:57;11.80;99.90
51837;DHT22;38941;53.254;6.600;2023-05-19T06:36:58;11.90;99.90
51837;DHT22;38941;53.254;6.600;2023-05-19T06:38:59;12.00;99.90
51837;DHT22;38941;53.254;6.600;2023-05-19T06:40:59;12.10;99.90
51837;DHT22;38941;53.254;6.600;2023-05-19T06:43:07;12.20;99.90
51837;DHT22;38941;53.254;6.600;2023-05-19T06:45:08;12.20;99.90
51837;DHT22;38941;53.254;6.600;2023-05-19T06:47:09;12.40;99.90
51837;DHT22;38941;53.254;6.600;2023-05-19T06:49:10;12.40;99.90
51837;DHT22;38941;53.254;6.600;2023-05-19T06:51:12;12.50;99.90
51837;DHT22;38941;53.254;6.600;2023-05-19T06:53:12;12.50;99.90
51837;DHT22;38941;53.254;6.600;2023-05-19T06:55:13;12.50;99.90
51837;DHT22;38941;53.254;6.600;2023-05-19T06:57:14;12.50;99.90
51837;DHT22;38941;53.254;6.600;2023-05-19T06:59:15;12.60;99.90
51837;DHT22;38941;53.254;6.600;2023-05-19T07:01:15;12.60;99.90
51837;DHT22;38941;53.254;6.600;2023-05-19T07:03:17;12.70;99.90
51837;DHT22;38941;53.254;6.600;2023-05-19T07:05:18;12.80;99.90
51837;DHT22;38941;53.254;6.600;2023-05-19T07:07:19;12.90;99.90
51837;DHT22;38941;53.254;6.600;2023-05-19T07:09:21;13.10;99.90
51837;DHT22;38941;53.254;6.600;2023-05-19T07:11:22;13.10;99.90
51837;DHT22;38941;53.254;6.600;2023-05-19T07:13:23;13.20;99.90
51837;DHT22;38941;53.254;6.600;2023-05-19T07:15:26;13.40;99.90
51837;DHT22;38941;53.254;6.600;2023-05-19T07:17:26;13.50;99.90
51837;DHT22;38941;53.254;6.600;2023-05-19T07:19:27;13.60;99.90
51837;DHT22;38941;53.254;6.600;2023-05-19T07:21:29;13.70;99.90
51837;DHT22;38941;53.254;6.600;2023-05-19T07:23:30;13.80;99.90
51837;DHT22;38941;53.254;6.600;2023-05-19T07:25:30;14.00;99.90
51837;DHT22;38941;53.254;6.600;2023-05-19T07:29:33;14.10;99.90
51837;DHT22;38941;53.254;6.600;2023-05-19T07:31:34;14.30;99.90
51837;DHT22;38941;53.254;6.600;2023-05-19T07:33:35;14.40;99.90
51837;DHT22;38941;53.254;6.600;2023-05-19T07:35:36;14.50;99.90
51837;DHT22;38941;53.254;6.600;2023-05-19T07:43:41;14.60;99.90
51837;DHT22;38941;53.254;6.600;2023-05-19T07:45:42;15.20;99.90
51837;DHT22;38941;53.254;6.600;2023-05-19T07:47:44;15.20;99.90
51837;DHT22;38941;53.254;6.600;2023-05-19T07:55:49;15.30;99.90
51837;DHT22;38941;53.254;6.600;2023-05-19T07:57:50;15.80;99.90
51837;DHT22;38941;53.254;6.600;2023-05-19T08:28:12;16.00;99.90
51837;DHT22;38941;53.254;6.600;2023-05-19T08:36:16;17.80;99.90
51837;DHT22;38941;53.254;6.600;2023-05-19T08:38:17;18.20;99.90
51837;DHT22;38941;53.254;6.600;2023-05-19T08:40:19;18.30;99.90
51837;DHT22;38941;53.254;6.600;2023-05-19T08:42:20;18.50;99.80
51837;DHT22;38941;53.254;6.600;2023-05-19T08:44:21;18.70;99.70
51837;DHT22;38941;53.254;6.600;2023-05-19T08:46:24;18.80;99.50
51837;DHT22;38941;53.254;6.600;2023-05-19T08:48:28;19.00;98.90
51837;DHT22;38941;53.254;6.600;2023-05-19T08:50:37;19.20;98.60
51837;DHT22;38941;53.254;6.600;2023-05-19T08:52:52;19.40;98.40
51837;DHT22;38941;53.254;6.600;2023-05-19T08:55:04;19.70;97.60
51837;DHT22;38941;53.254;6.600;2023-05-19T08:57:09;19.90;98.20
51837;DHT22;38941;53.254;6.600;2023-05-19T08:59:12;20.00;97.80
51837;DHT22;38941;53.254;6.600;2023-05-19T09:01:14;20.00;97.10
51837;DHT22;38941;53.254;6.600;2023-05-19T09:03:18;20.00;96.90
51837;DHT22;38941;53.254;6.600;2023-05-19T09:05:20;20.00;96.50
51837;DHT22;38941;53.254;6.600;2023-05-19T09:07:22;20.10;96.40
51837;DHT22;38941;53.254;6.600;2023-05-19T09:09:25;20.20;95.90
51837;DHT22;38941;53.254;6.600;2023-05-19T09:11:25;20.40;95.80
51837;DHT22;38941;53.254;6.600;2023-05-19T09:13:27;20.60;95.70
51837;DHT22;38941;53.254;6.600;2023-05-19T09:15:27;20.90;95.40
51837;DHT22;38941;53.254;6.600;2023-05-19T09:17:28;21.10;95.20
51837;DHT22;38941;53.254;6.600;2023-05-19T09:33:41;21.30;94.50
51837;DHT22;38941;53.254;6.600;2023-05-19T09:48:03;21.90;91.60
51837;DHT22;38941;53.254;6.600;2023-05-19T09:50:06;21.90;86.10
51837;DHT22;38941;53.254;6.600;2023-05-19T09:52:08;21.90;84.80
51837;DHT22;38941;53.254;6.600;2023-05-19T09:54:13;21.90;84.90
51837;DHT22;38941;53.254;6.600;2023-05-19T10:32:59;22.10;83.50
51837;DHT22;38941;53.254;6.600;2023-05-19T10:35:19;24.30;69.90
51837;DHT22;38941;53.254;6.600;2023-05-19T11:12:56;24.80;69.20
51837;DHT22;38941;53.254;6.600;2023-05-19T11:14:58;25.90;61.20
51837;DHT22;38941;53.254;6.600;2023-05-19T11:16:59;25.80;61.10
51837;DHT22;38941;53.254;6.600;2023-05-19T11:19:00;26.00;60.70
51837;DHT22;38941;53.254;6.600;2023-05-19T11:21:02;26.20;61.10
51837;DHT22;38941;53.254;6.600;2023-05-19T11:23:03;26.30;60.30
51837;DHT22;38941;53.254;6.600;2023-05-19T11:25:05;26.20;59.60
51837;DHT22;38941;53.254;6.600;2023-05-19T11:27:28;26.00;58.10
51837;DHT22;38941;53.254;6.600;2023-05-19T11:29:30;26.20;55.10
51837;DHT22;38941;53.254;6.600;2023-05-19T11:31:31;26.30;57.30
51837;DHT22;38941;53.254;6.600;2023-05-19T11:33:34;26.20;56.60
51837;DHT22;38941;53.254;6.600;2023-05-19T11:35:35;26.20;56.40
51837;DHT22;38941;53.254;6.600;2023-05-19T11:37:36;26.30;56.30
51837;DHT22;38941;53.254;6.600;2023-05-19T11:39:40;26.60;55.30
51837;DHT22;38941;53.254;6.600;2023-05-19T11:41:40;26.90;55.00
51837;DHT22;38941;53.254;6.600;2023-05-19T11:43:46;26.80;54.20
51837;DHT22;38941;53.254;6.600;2023-05-19T11:45:47;26.80;52.10
51837;DHT22;38941;53.254;6.600;2023-05-19T11:47:49;26.80;53.30
51837;DHT22;38941;53.254;6.600;2023-05-19T11:49:50;27.10;53.40
51837;DHT22;38941;53.254;6.600;2023-05-19T11:51:51;27.10;53.60
51837;DHT22;38941;53.254;6.600;2023-05-19T11:53:53;27.40;52.30
51837;DHT22;38941;53.254;6.600;2023-05-19T11:55:54;27.00;51.30
51837;DHT22;38941;53.254;6.600;2023-05-19T11:57:58;26.90;52.00
51837;DHT22;38941;53.254;6.600;2023-05-19T12:00:01;26.80;52.00
51837;DHT22;38941;53.254;6.600;2023-05-19T12:02:14;26.70;51.10
51837;DHT22;38941;53.254;6.600;2023-05-19T12:04:15;26.80;51.70
51837;DHT22;38941;53.254;6.600;2023-05-19T12:55:13;26.90;51.60
51837;DHT22;38941;53.254;6.600;2023-05-19T12:57:16;28.40;48.10
51837;DHT22;38941;53.254;6.600;2023-05-19T12:59:21;28.40;48.50
51837;DHT22;38941;53.254;6.600;2023-05-19T13:01:22;28.40;47.80
51837;DHT22;38941;53.254;6.600;2023-05-19T13:03:23;28.60;48.40
51837;DHT22;38941;53.254;6.600;2023-05-19T13:05:25;28.70;48.40
51837;DHT22;38941;53.254;6.600;2023-05-19T13:07:26;28.70;48.30
51837;DHT22;38941;53.254;6.600;2023-05-19T13:09:26;28.40;47.90
51837;DHT22;38941;53.254;6.600;2023-05-19T13:11:28;28.30;47.80
51837;DHT22;38941;53.254;6.600;2023-05-19T13:13:29;28.30;47.80
51837;DHT22;38941;53.254;6.600;2023-05-19T13:15:32;28.30;47.80
51837;DHT22;38941;53.254;6.600;2023-05-19T13:17:35;28.40;47.40
51837;DHT22;38941;53.254;6.600;2023-05-19T13:19:36;28.50;48.20
51837;DHT22;38941;53.254;6.600;2023-05-19T13:21:37;28.60;48.80
51837;DHT22;38941;53.254;6.600;2023-05-19T13:23:38;28.40;49.40
51837;DHT22;38941;53.254;6.600;2023-05-19T13:25:39;28.20;49.80
51837;DHT22;38941;53.254;6.600;2023-05-19T13:27:41;28.40;50.80
51837;DHT22;38941;53.254;6.600;2023-05-19T13:29:41;28.30;50.10
51837;DHT22;38941;53.254;6.600;2023-05-19T13:31:42;28.40;49.80
51837;DHT22;38941;53.254;6.600;2023-05-19T13:33:43;28.50;50.30
51837;DHT22;38941;53.254;6.600;2023-05-19T13:35:44;28.20;51.00
51837;DHT22;38941;53.254;6.600;2023-05-19T13:37:44;28.10;51.20
51837;DHT22;38941;53.254;6.600;2023-05-19T13:39:45;27.70;51.40
51837;DHT22;38941;53.254;6.600;2023-05-19T13:41:46;27.30;52.40
51837;DHT22;38941;53.254;6.600;2023-05-19T13:43:47;27.20;52.60
51837;DHT22;38941;53.254;6.600;2023-05-19T13:45:48;27.30;52.20
51837;DHT22;38941;53.254;6.600;2023-05-19T13:47:48;27.30;51.90
51837;DHT22;38941;53.254;6.600;2023-05-19T13:49:50;27.40;52.40
51837;DHT22;38941;53.254;6.600;2023-05-19T13:51:54;27.60;53.20
51837;DHT22;38941;53.254;6.600;2023-05-19T13:53:56;27.60;53.20
51837;DHT22;38941;53.254;6.600;2023-05-19T13:55:56;27.60;53.00
51837;DHT22;38941;53.254;6.600;2023-05-19T13:57:58;27.80;52.50
51837;DHT22;38941;53.254;6.600;2023-05-19T13:59:59;27.90;52.50
51837;DHT22;38941;53.254;6.600;2023-05-19T14:02:00;27.80;52.90
51837;DHT22;38941;53.254;6.600;2023-05-19T14:04:02;27.70;53.10
51837;DHT22;38941;53.254;6.600;2023-05-19T14:06:02;27.70;53.40
51837;DHT22;38941;53.254;6.600;2023-05-19T14:08:04;27.70;53.30
51837;DHT22;38941;53.254;6.600;2023-05-19T14:10:08;27.60;54.10
51837;DHT22;38941;53.254;6.600;2023-05-19T14:12:09;27.60;53.50
51837;DHT22;38941;53.254;6.600;2023-05-19T14:14:11;27.70;53.20
51837;DHT22;38941;53.254;6.600;2023-05-19T14:16:12;27.70;53.40
51837;DHT22;38941;53.254;6.600;2023-05-19T14:18:13;27.80;53.90
51837;DHT22;38941;53.254;6.600;2023-05-19T14:20:14;27.90;54.20
51837;DHT22;38941;53.254;6.600;2023-05-19T14:22:14;27.90;54.00
51837;DHT22;38941;53.254;6.600;2023-05-19T14:24:15;28.00;53.60
51837;DHT22;38941;53.254;6.600;2023-05-19T14:26:17;27.90;53.60
51837;DHT22;38941;53.254;6.600;2023-05-19T14:28:19;27.80;54.20
51837;DHT22;38941;53.254;6.600;2023-05-19T14:30:20;27.70;54.70
51837;DHT22;38941;53.254;6.600;2023-05-19T14:32:21;27.40;55.00
51837;DHT22;38941;53.254;6.600;2023-05-19T14:34:21;27.00;55.20
51837;DHT22;38941;53.254;6.600;2023-05-19T14:36:22;27.10;55.10
51837;DHT22;38941;53.254;6.600;2023-05-19T14:38:23;26.90;55.90
51837;DHT22;38941;53.254;6.600;2023-05-19T14:40:23;26.90;55.50
51837;DHT22;38941;53.254;6.600;2023-05-19T14:42:24;26.90;55.40
51837;DHT22;38941;53.254;6.600;2023-05-19T14:44:32;26.90;55.80
51837;DHT22;38941;53.254;6.600;2023-05-19T14:46:33;26.90;55.20
51837;DHT22;38941;53.254;6.600;2023-05-19T14:48:34;27.00;55.40
51837;DHT22;38941;53.254;6.600;2023-05-19T14:50:35;27.00;55.50
51837;DHT22;38941;53.254;6.600;2023-05-19T14:52:35;26.90;55.90
51837;DHT22;38941;53.254;6.600;2023-05-19T14:54:36;26.90;55.70
51837;DHT22;38941;53.254;6.600;2023-05-19T14:56:37;26.60;55.70
51837;DHT22;38941;53.254;6.600;2023-05-19T14:58:38;26.50;56.50
51837;DHT22;38941;53.254;6.600;2023-05-19T15:00:39;26.40;56.30
51837;DHT22;38941;53.254;6.600;2023-05-19T15:02:41;26.50;56.40
51837;DHT22;38941;53.254;6.600;2023-05-19T15:04:42;26.60;56.60
51837;DHT22;38941;53.254;6.600;2023-05-19T15:06:43;26.60;56.80
51837;DHT22;38941;53.254;6.600;2023-05-19T15:08:44;26.60;57.10
51837;DHT22;38941;53.254;6.600;2023-05-19T15:10:48;26.60;56.90
51837;DHT22;38941;53.254;6.600;2023-05-19T15:12:49;26.60;56.70
51837;DHT22;38941;53.254;6.600;2023-05-19T15:14:50;26.70;56.80
51837;DHT22;38941;53.254;6.600;2023-05-19T15:16:51;26.70;56.40
51837;DHT22;38941;53.254;6.600;2023-05-19T15:18:51;26.80;56.60
51837;DHT22;38941;53.254;6.600;2023-05-19T15:20:52;26.90;56.80
51837;DHT22;38941;53.254;6.600;2023-05-19T15:22:53;26.90;56.80
51837;DHT22;38941;53.254;6.600;2023-05-19T15:24:54;26.70;57.00
51837;DHT22;38941;53.254;6.600;2023-05-19T15:26:55;26.60;57.00
51837;DHT22;38941;53.254;6.600;2023-05-19T15:28:55;26.30;57.00
51837;DHT22;38941;53.254;6.600;2023-05-19T15:30:56;25.90;57.00
51837;DHT22;38941;53.254;6.600;2023-05-19T15:32:57;25.80;57.60
51837;DHT22;38941;53.254;6.600;2023-05-19T15:34:58;25.80;57.80
51837;DHT22;38941;53.254;6.600;2023-05-19T15:36:58;25.90;57.80
51837;DHT22;38941;53.254;6.600;2023-05-19T15:38:59;25.90;58.00
51837;DHT22;38941;53.254;6.600;2023-05-19T15:41:05;26.10;57.70
51837;DHT22;38941;53.254;6.600;2023-05-19T15:43:06;26.10;57.60
51837;DHT22;38941;53.254;6.600;2023-05-19T15:45:07;26.10;57.70
51837;DHT22;38941;53.254;6.600;2023-05-19T15:47:08;25.90;57.70
51837;DHT22;38941;53.254;6.600;2023-05-19T15:49:09;25.70;57.60
51837;DHT22;38941;53.254;6.600;2023-05-19T15:51:10;25.60;57.50
51837;DHT22;38941;53.254;6.600;2023-05-19T15:53:11;25.40;58.30
51837;DHT22;38941;53.254;6.600;2023-05-19T15:55:12;25.40;57.90
51837;DHT22;38941;53.254;6.600;2023-05-19T15:57:12;25.40;57.80
51837;DHT22;38941;53.254;6.600;2023-05-19T15:59:13;25.30;57.60
51837;DHT22;38941;53.254;6.600;2023-05-19T16:01:15;25.20;57.70
51837;DHT22;38941;53.254;6.600;2023-05-19T16:03:17;25.20;57.60
51837;DHT22;38941;53.254;6.600;2023-05-19T16:05:18;25.10;57.80
51837;DHT22;38941;53.254;6.600;2023-05-19T16:07:19;24.90;58.00
51837;DHT22;38941;53.254;6.600;2023-05-19T16:09:21;24.90;58.40
51837;DHT22;38941;53.254;6.600;2023-05-19T16:11:22;24.70;58.50
51837;DHT22;38941;53.254;6.600;2023-05-19T16:13:23;24.60;58.80
51837;DHT22;38941;53.254;6.600;2023-05-19T16:21:27;24.60;59.20
51837;DHT22;38941;53.254;6.600;2023-05-19T16:23:28;24.10;58.80
51837;DHT22;38941;53.254;6.600;2023-05-19T16:25:30;24.00;58.80
51837;DHT22;38941;53.254;6.600;2023-05-19T17:30:12;23.90;59.00
51837;DHT22;38941;53.254;6.600;2023-05-19T17:32:13;21.30;62.90
51837;DHT22;38941;53.254;6.600;2023-05-19T17:34:13;21.00;62.80
51837;DHT22;38941;53.254;6.600;2023-05-19T17:36:14;20.90;63.10
51837;DHT22;38941;53.254;6.600;2023-05-19T17:38:15;20.80;63.20
51837;DHT22;38941;53.254;6.600;2023-05-19T17:40:16;20.70;63.30
51837;DHT22;38941;53.254;6.600;2023-05-19T17:42:17;20.60;63.50